AirNav   Everest Fuels
 
 428 users online  

LA93 Childrens Hospital of New Orleans Heliport
New Orleans, Louisiana, USA

GOING TO NEW ORLEANS?


FAA INFORMATION EFFECTIVE 08 SEPTEMBER 2022

Location

FAA Identifier: LA93
Lat/Long: 29-55-05.2400N 090-07-40.3300W
29-55.087333N 090-07.672167W
29.9181222,-90.1278694
(estimated)
Elevation: 104 ft. / 32 m (estimated)
Variation: 01W (2020)
From city: 4 miles SW of NEW ORLEANS, LA
Time zone: UTC -5 (UTC -6 during Standard Time)
Zip code: 70115

Heliport Operations

Heliport use: Private use. Permission required prior to landing
Activation date: 01/2007
Control tower: no
ARTCC: HOUSTON CENTER
FSS: DE RIDDER FLIGHT SERVICE STATION
NOTAMs facility: FDC (NOTAM-D service not available)
Attendance: UNATNDD
Wind indicator: lighted
Segmented circle: no
Lights: SS-SR

Heliport Communications

WX ASOS at MSY (8 nm NW): PHONE (504)471-4486
WX ASOS at NEW (9 nm NE): PHONE 504-245-4366

Nearby radio navigation aids

VOR radial/distance  VOR name  Freq  Var
HRVr300/7.7HARVEY VORTAC114.1002E
RQRr111/26.0RESERVE VOR/DME110.8002E
TBDr065/39.6TIBBY VOR/DME112.0002E

Heliport Services

Runway Information

Helipad H1

Dimensions: 65 x 65 ft. / 20 x 20 m
Surface: concrete
Runway edge lights: PERI
Latitude: 29-55.087333N
Longitude: 090-07.672167W
Elevation: 104.0 ft.
Traffic pattern: leftleft
Markings: , in good condition

Heliport Ownership and Management from official FAA records

Ownership: Privately-owned
Owner: CHILDREN'S HOSPITAL
200 HENRY CLAY
NEW ORLEANS, LA 70118
Phone 504-899-9511
Manager: EVAN BERTUCCI
200 HENRY CLAY
NEW ORLEANS, LA 70118
Phone 504-899-9511
DIR OF TRNSP SVCS.

Additional Remarks

FOR CD CTC NEW ORLEANS APCH AT 504-471-4350.

Instrument Procedures

There are no published instrument procedures at LA93.

Some nearby airports with instrument procedures:

KNBG - New Orleans Naval Air Station Joint Reserve Base - Alvin Callender Field (8 nm SE)
KMSY - Louis Armstrong New Orleans International Airport (8 nm NW)
KNEW - Lakefront Airport (9 nm NE)
KAPS - Port of South Louisiana Executive Regional Airport (26 nm NW)
KGAO - South Lafourche Leonard Miller Jr.. Airport (29 nm S)
 
Loc | Ops | Rwys | IFR | FBO | Links
Com | Nav | Svcs | Stats | Notes
Aerial photo
No photo
 
Sectional chart

 
Airport distance calculator
Flying to Childrens Hospital of New Orleans Heliport? Find the distance to fly.

From to LA93

Sunrise and sunset
Times for 02-Oct-2022
 Local
(UTC-5)
 Zulu
(UTC)
Morning civil twilight06:3211:32
Sunrise06:5511:55
Sunset18:4423:44
Evening civil twilight19:0800:08

Current date and time
Zulu (UTC)  02-Oct-2022 10:38:09
Local (UTC-5)  02-Oct-2022 05:38:09
 
METAR
K7N0 
3nm NE 
020956Z AUTO VRB03KT 10SM CLR 19/13 A3004 RMK AO2 SLP171 T01940128 PNO $
KMSY 
8nm NW 
020953Z 34003KT 10SM CLR 15/14 A3003 RMK AO2 SLP171 T01500139
KNBG 
8nm SE 
012155Z 34008KT 10SM CLR 28/09 A2994 RMK AO2 SLP136 T02780089 $
KNEW 
9nm NE 
020953Z AUTO 03011KT 10SM CLR 21/13 A3003 RMK AO2 SLP162 T02110128
TAF
KMSY 
8nm NW 
020521Z 0206/0312 VRB04KT P6SM SKC FM021500 01008KT P6SM FEW250 FM030200 36005KT P6SM FEW250
KNBG 
8nm SE 
0207/0307 01008KT 9999 SKC QNH3003INS BECMG 0215/0217 VRB05KT 9999 SKC QNH3008INS T16/0212Z T26/0221Z FN00253
KNEW 
9nm NE 
020521Z 0206/0306 02012KT P6SM SKC FM021500 02008KT P6SM SKC FM021900 34006KT P6SM SKC FM030100 01015KT P6SM FEW250
NOTAMs
Click for the latest NOTAMs
NOTAMs are issued by the DoD/FAA and will open in a separate window not controlled by AirNav.

 

 
 

Would you like to see your business listed on this page?

 If your business provides an interesting product or service to pilots, flight crews, aircraft, or users of the Childrens Hospital of New Orleans Heliport, you should consider listing it here.  To start the listing process, click on the button below
 
Add a business
 

Other Pages about Childrens Hospital of New Orleans Heliport

Update a link
 
Copyright © AirNav, LLC. All rights reserved. Privacy Policy  Contact